createdAt,value
2022-11-19T00:02:36.691Z,9.98
2022-11-19T00:05:04.078Z,10.23
2022-11-19T00:38:03.616Z,9.80
2022-11-19T00:59:21.620Z,10.35
2022-11-19T01:10:38.672Z,9.80
2022-11-19T01:25:55.614Z,10.45
2022-11-19T01:28:22.865Z,10.45
2022-11-19T01:30:50.141Z,10.30
2022-11-19T01:33:17.610Z,9.27
2022-11-19T01:35:44.732Z,9.90
2022-11-19T01:38:11.925Z,10.00
2022-11-19T01:40:44.310Z,10.32
2022-11-19T01:43:13.030Z,9.57
2022-11-19T01:45:45.579Z,9.38
2022-11-19T01:48:23.126Z,9.90
2022-11-19T01:50:55.458Z,9.27
2022-11-19T01:53:26.408Z,10.00
2022-11-19T01:55:53.927Z,10.43
2022-11-19T01:58:23.599Z,10.15
2022-11-19T02:00:50.775Z,9.88
2022-11-19T02:03:19.008Z,9.20
2022-11-19T02:05:46.518Z,9.38
2022-11-19T02:08:46.673Z,9.73
2022-11-19T02:11:25.913Z,10.48
2022-11-19T02:14:12.556Z,9.13
2022-11-19T02:16:51.435Z,9.23
2022-11-19T02:19:35.027Z,8.68
2022-11-19T02:22:21.122Z,10.27
2022-11-19T02:24:56.002Z,9.45
2022-11-19T02:27:55.752Z,7.50
2022-11-19T02:30:22.944Z,9.77
2022-11-19T02:33:16.382Z,9.10
2022-11-19T02:36:00.006Z,9.95
2022-11-19T02:38:29.272Z,10.07
2022-11-19T02:40:59.428Z,9.20
2022-11-19T02:43:33.710Z,9.40
2022-11-19T02:46:09.666Z,9.15
2022-11-19T02:48:46.814Z,9.32
2022-11-19T02:51:14.738Z,9.23
2022-11-19T02:53:41.869Z,9.35
2022-11-19T02:56:35.371Z,8.90
2022-11-19T02:59:38.359Z,8.38
2022-11-19T03:02:25.528Z,9.02
2022-11-19T03:04:53.244Z,8.38
2022-11-19T03:07:21.625Z,8.27
2022-11-19T03:09:53.242Z,8.40
2022-11-19T03:12:38.664Z,8.63
2022-11-19T03:15:29.390Z,8.65
2022-11-19T03:17:59.400Z,8.57
2022-11-19T03:20:37.184Z,8.32
2022-11-19T03:23:43.812Z,8.50
2022-11-19T03:26:17.660Z,8.82
2022-11-19T03:28:46.541Z,9.32
2022-11-19T03:31:15.253Z,8.32
2022-11-19T03:33:44.896Z,7.78
2022-11-19T03:36:14.910Z,7.50
2022-11-19T03:38:44.621Z,6.88
2022-11-19T03:41:13.883Z,6.85
2022-11-19T03:43:44.559Z,7.88
2022-11-19T03:46:15.356Z,8.50
2022-11-19T03:48:45.498Z,8.00
2022-11-19T03:51:16.141Z,7.53
2022-11-19T03:53:43.345Z,7.68
2022-11-19T03:56:17.575Z,7.05
2022-11-19T03:58:47.364Z,7.60
2022-11-19T04:01:14.546Z,8.07
2022-11-19T04:04:01.642Z,8.65
2022-11-19T04:06:28.802Z,6.55
2022-11-19T04:08:56.076Z,7.93
2022-11-19T04:13:49.329Z,7.70
2022-11-19T04:16:16.557Z,6.65
2022-11-19T04:18:43.717Z,6.07
2022-11-19T04:21:10.894Z,7.50
2022-11-19T04:23:38.098Z,7.72
2022-11-19T04:26:05.520Z,7.70
2022-11-19T04:32:46.358Z,6.95
2022-11-19T04:35:14.219Z,7.63
2022-11-19T04:37:46.421Z,7.88
2022-11-19T04:40:15.491Z,8.35
2022-11-19T04:42:43.159Z,7.72
2022-11-19T04:45:11.820Z,6.90
2022-11-19T04:47:40.101Z,7.07
2022-11-19T04:50:11.880Z,7.30
2022-11-19T04:52:50.709Z,7.25
2022-11-19T04:55:24.134Z,7.53
2022-11-19T04:57:53.362Z,7.78
2022-11-19T05:00:21.630Z,7.97
2022-11-19T05:02:55.025Z,7.82
2022-11-19T05:05:22.818Z,7.10
2022-11-19T05:08:02.149Z,8.57
2022-11-19T05:10:36.695Z,7.18
2022-11-19T05:13:04.227Z,7.20
2022-11-19T05:15:32.610Z,7.40
2022-11-19T05:18:00.188Z,7.22
2022-11-19T05:42:56.064Z,7.03
2022-11-19T05:58:47.270Z,6.05
2022-11-19T06:14:27.728Z,5.72
2022-11-19T07:00:51.478Z,5.88
2022-11-19T07:11:56.199Z,6.70
2022-11-19T07:14:23.375Z,6.43
2022-11-19T07:16:50.849Z,6.63
2022-11-19T07:19:18.365Z,6.13
2022-11-19T07:21:45.762Z,6.32
2022-11-19T07:24:16.108Z,7.03
2022-11-19T07:31:24.620Z,7.18
2022-11-19T07:33:52.037Z,6.15
2022-11-19T07:36:19.225Z,6.32
2022-11-19T07:38:47.066Z,5.78
2022-11-19T07:41:32.833Z,6.20
2022-11-19T07:43:59.983Z,6.35
2022-11-19T07:46:27.214Z,5.40
2022-11-19T07:48:55.335Z,5.28
2022-11-19T07:51:23.253Z,6.00
2022-11-19T07:53:50.910Z,6.50
2022-11-19T07:56:19.085Z,6.10
2022-11-19T07:58:46.753Z,5.70
2022-11-19T08:01:19.575Z,5.93
2022-11-19T08:03:50.751Z,4.72
2022-11-19T08:06:20.326Z,5.57
2022-11-19T08:13:09.893Z,5.20
2022-11-19T08:34:04.800Z,4.40
2022-11-19T08:36:32.004Z,4.53
2022-11-19T08:56:17.893Z,4.10
2022-11-19T08:58:45.516Z,4.07
2022-11-19T09:01:14.564Z,3.97
2022-11-19T09:03:41.846Z,4.25
2022-11-19T09:06:09.526Z,4.35
2022-11-19T09:08:36.721Z,4.15
2022-11-19T09:11:12.863Z,3.50
2022-11-19T09:13:41.349Z,3.40
2022-11-19T09:16:10.007Z,3.30
2022-11-19T09:18:39.188Z,3.42
2022-11-19T09:21:07.827Z,2.83
2022-11-19T09:23:35.061Z,4.10
2022-11-19T10:04:48.067Z,3.13
2022-11-19T10:11:59.947Z,3.20
2022-11-19T10:28:43.714Z,2.80
2022-11-19T10:39:51.603Z,2.58
2022-11-19T10:55:38.127Z,2.65
2022-11-19T10:58:14.311Z,2.72
2022-11-19T11:00:42.038Z,3.15
2022-11-19T11:03:32.647Z,2.88
2022-11-19T11:06:02.630Z,3.20
2022-11-19T11:08:29.961Z,3.00
2022-11-19T11:10:57.880Z,2.78
2022-11-19T11:13:52.800Z,2.90
2022-11-19T11:16:42.734Z,2.80
2022-11-19T11:19:20.581Z,3.00
2022-11-19T11:21:52.432Z,2.88
2022-11-19T11:24:19.621Z,3.20
2022-11-19T11:26:46.818Z,3.70
2022-11-19T11:29:14.004Z,3.58
2022-11-19T11:31:43.668Z,3.80
2022-11-19T11:34:30.272Z,3.60
2022-11-19T11:37:00.273Z,3.38
2022-11-19T11:39:31.207Z,3.55
2022-11-19T11:42:05.973Z,3.97
2022-11-19T11:44:36.670Z,4.50
2022-11-19T11:47:11.588Z,3.85
2022-11-19T11:49:41.494Z,4.45
2022-11-19T11:52:11.703Z,3.83
2022-11-19T11:55:13.128Z,4.95
2022-11-19T11:57:59.318Z,4.47
2022-11-19T12:03:07.972Z,3.90
2022-11-19T12:05:49.978Z,4.50
2022-11-19T12:08:27.224Z,4.63
2022-11-19T12:11:17.994Z,4.63
2022-11-19T12:13:55.491Z,4.47
2022-11-19T12:16:50.127Z,3.75
2022-11-19T12:19:26.419Z,5.13
2022-11-19T12:22:09.833Z,4.43
2022-11-19T12:24:57.893Z,4.90
2022-11-19T12:27:38.593Z,4.97
2022-11-19T12:30:19.117Z,5.25
2022-11-19T12:33:08.363Z,4.78
2022-11-19T12:35:49.627Z,5.00
2022-11-19T12:38:20.718Z,4.97
2022-11-19T12:40:58.834Z,5.28
2022-11-19T12:43:47.893Z,5.78
2022-11-19T12:46:32.857Z,5.30
2022-11-19T13:10:38.458Z,6.50
2022-11-19T13:47:58.141Z,7.25
2022-11-19T13:50:37.505Z,6.13
2022-11-19T13:53:13.983Z,7.43
2022-11-19T13:55:42.226Z,7.25
2022-11-19T13:58:18.670Z,7.00
2022-11-19T14:01:18.144Z,6.80
2022-11-19T14:30:19.800Z,6.15
2022-11-19T14:37:23.594Z,6.13
2022-11-19T14:53:18.713Z,6.93
2022-11-19T15:04:29.594Z,7.45
2022-11-19T16:41:00.722Z,8.15
2022-11-19T16:52:48.735Z,8.25
2022-11-19T17:44:31.863Z,10.20
2022-11-19T17:47:24.584Z,9.40
2022-11-19T18:02:49.319Z,10.05
2022-11-19T18:10:01.079Z,10.60
2022-11-19T18:12:34.185Z,11.18
2022-11-19T18:15:35.767Z,10.48
2022-11-19T18:26:37.153Z,10.52
2022-11-19T18:42:20.733Z,11.57
2022-11-19T18:44:50.668Z,12.15
2022-11-19T18:47:18.833Z,12.20
2022-11-19T18:49:45.972Z,12.15
2022-11-19T19:14:18.665Z,12.57
2022-11-19T19:25:23.486Z,11.55
2022-11-19T19:37:03.114Z,14.40
2022-11-19T19:39:33.434Z,10.90
2022-11-19T19:55:36.377Z,12.05
2022-11-19T20:06:50.233Z,11.23
2022-11-19T20:17:29.949Z,9.77
2022-11-19T20:19:56.859Z,10.18
2022-11-19T20:22:24.064Z,8.65
2022-11-19T20:24:51.249Z,10.05
2022-11-19T20:27:18.502Z,9.63
2022-11-19T20:29:45.779Z,9.60
2022-11-19T20:32:13.023Z,9.50
2022-11-19T20:34:41.913Z,8.63
2022-11-19T20:37:09.165Z,8.60
2022-11-19T20:39:36.748Z,8.70
2022-11-19T20:42:22.672Z,8.43
2022-11-19T20:44:49.996Z,8.50
2022-11-19T20:47:17.153Z,9.18
2022-11-19T20:49:44.502Z,10.05
2022-11-19T20:52:13.190Z,9.57
2022-11-19T21:11:33.086Z,10.93
2022-11-19T21:22:38.585Z,10.15
2022-11-19T21:56:01.299Z,12.30
2022-11-19T22:20:04.943Z,11.10
2022-11-19T22:27:24.514Z,12.80
2022-11-19T22:43:22.916Z,11.68
2022-11-19T22:45:50.635Z,13.45
2022-11-19T23:15:04.003Z,13.98
2022-11-19T23:26:24.849Z,13.52
2022-11-19T23:54:38.682Z,13.05
